createdAt,value
2022-09-25T00:01:57.632Z,5.00
2022-09-25T00:03:59.759Z,5.35
2022-09-25T00:06:13.181Z,4.20
2022-09-25T00:08:16.618Z,4.53
2022-09-25T00:10:19.029Z,6.60
2022-09-25T00:12:20.848Z,5.65
2022-09-25T00:14:22.740Z,4.78
2022-09-25T00:16:27.578Z,4.90
2022-09-25T00:18:48.071Z,6.80
2022-09-25T00:21:01.058Z,4.82
2022-09-25T00:23:02.987Z,3.58
2022-09-25T00:25:05.051Z,3.97
2022-09-25T00:27:08.506Z,4.82
2022-09-25T00:29:17.573Z,6.03
2022-09-25T00:31:24.965Z,6.68
2022-09-25T00:33:26.812Z,9.02
2022-09-25T00:35:28.497Z,7.45
2022-09-25T00:37:30.461Z,4.93
2022-09-25T00:39:33.249Z,4.80
2022-09-25T00:41:35.118Z,3.95
2022-09-25T00:43:48.997Z,3.97
2022-09-25T00:45:50.915Z,6.03
2022-09-25T00:48:00.076Z,4.75
2022-09-25T00:50:04.852Z,3.80
2022-09-25T00:52:15.410Z,4.95
2022-09-25T00:54:22.353Z,8.23
2022-09-25T00:56:25.159Z,3.75
2022-09-25T00:58:29.953Z,8.05
2022-09-25T01:00:33.400Z,5.45
2022-09-25T01:02:40.121Z,3.25
2022-09-25T01:04:46.239Z,2.92
2022-09-25T01:06:49.769Z,5.55
2022-09-25T01:08:52.230Z,3.67
2022-09-25T01:10:54.326Z,4.05
2022-09-25T01:12:58.110Z,3.22
2022-09-25T01:14:59.817Z,3.63
2022-09-25T01:17:17.042Z,3.95
2022-09-25T01:19:53.944Z,4.50
2022-09-25T01:22:20.197Z,3.95
2022-09-25T01:24:41.113Z,4.18
2022-09-25T01:26:56.962Z,5.00
2022-09-25T01:29:16.854Z,4.38
2022-09-25T01:31:29.981Z,4.05
2022-09-25T01:33:36.893Z,3.45
2022-09-25T01:35:44.100Z,5.28
2022-09-25T01:37:55.201Z,2.65
2022-09-25T01:40:15.134Z,3.03
2022-09-25T01:42:29.586Z,5.22
2022-09-25T01:44:37.077Z,3.97
2022-09-25T01:46:45.819Z,6.00
2022-09-25T01:48:59.101Z,7.43
2022-09-25T01:51:09.478Z,5.82
2022-09-25T01:53:16.895Z,7.90
2022-09-25T01:55:24.330Z,4.05
2022-09-25T01:57:33.053Z,6.78
2022-09-25T01:59:54.354Z,6.57
2022-09-25T02:01:59.560Z,5.45
2022-09-25T02:04:10.068Z,5.20
2022-09-25T02:06:19.777Z,3.95
2022-09-25T02:08:44.674Z,5.65
2022-09-25T02:10:53.842Z,3.33
2022-09-25T02:13:02.054Z,4.43
2022-09-25T02:15:26.696Z,4.28
2022-09-25T02:18:34.895Z,3.65
2022-09-25T02:20:37.399Z,3.83
2022-09-25T02:22:39.343Z,5.00
2022-09-25T02:24:54.120Z,7.35
2022-09-25T02:26:58.598Z,7.63
2022-09-25T02:29:02.683Z,4.70
2022-09-25T02:31:10.487Z,4.97
2022-09-25T02:33:13.270Z,6.13
2022-09-25T02:35:16.311Z,4.38
2022-09-25T02:37:19.430Z,4.70
2022-09-25T02:39:25.501Z,6.47
2022-09-25T02:42:09.810Z,3.60
2022-09-25T02:44:26.621Z,3.90
2022-09-25T02:46:49.325Z,2.90
2022-09-25T02:49:15.914Z,3.97
2022-09-25T02:51:20.843Z,4.75
2022-09-25T02:53:41.218Z,4.53
2022-09-25T02:55:58.781Z,2.97
2022-09-25T02:58:09.924Z,4.20
2022-09-25T03:00:13.631Z,3.97
2022-09-25T03:02:17.568Z,2.85
2022-09-25T03:04:21.987Z,4.55
2022-09-25T03:06:26.191Z,2.95
2022-09-25T03:08:38.617Z,3.97
2022-09-25T03:10:41.466Z,4.38
2022-09-25T03:12:44.034Z,3.58
2022-09-25T03:14:49.162Z,4.47
2022-09-25T03:16:57.991Z,3.20
2022-09-25T03:19:01.137Z,4.13
2022-09-25T03:21:05.825Z,3.50
2022-09-25T03:23:08.113Z,4.28
2022-09-25T03:25:10.628Z,3.67
2022-09-25T03:27:13.107Z,3.00
2022-09-25T03:29:17.557Z,4.30
2022-09-25T03:31:20.633Z,7.30
2022-09-25T03:33:27.324Z,3.50
2022-09-25T03:35:29.694Z,4.32
2022-09-25T03:37:32.740Z,2.95
2022-09-25T03:39:34.811Z,4.30
2022-09-25T03:41:37.471Z,4.43
2022-09-25T03:43:41.291Z,4.72
2022-09-25T03:45:43.756Z,6.75
2022-09-25T03:47:46.052Z,5.35
2022-09-25T03:49:50.625Z,4.13
2022-09-25T03:51:52.839Z,5.55
2022-09-25T03:53:55.613Z,4.72
2022-09-25T03:55:58.020Z,4.35
2022-09-25T03:58:00.643Z,3.53
2022-09-25T04:00:03.936Z,6.82
2022-09-25T04:02:14.925Z,5.32
2022-09-25T04:04:17.704Z,5.00
2022-09-25T04:06:22.986Z,4.75
2022-09-25T04:08:27.258Z,7.88
2022-09-25T04:10:29.648Z,4.78
2022-09-25T04:12:37.533Z,7.65
2022-09-25T04:14:40.227Z,4.07
2022-09-25T04:16:43.907Z,4.57
2022-09-25T04:18:46.424Z,6.18
2022-09-25T04:20:48.916Z,3.08
2022-09-25T04:22:51.265Z,3.97
2022-09-25T04:24:55.212Z,7.68
2022-09-25T04:26:57.625Z,4.20
2022-09-25T04:29:03.917Z,6.88
2022-09-25T04:31:06.999Z,5.40
2022-09-25T04:33:28.680Z,9.20
2022-09-25T04:35:33.335Z,4.82
2022-09-25T04:37:35.987Z,5.60
2022-09-25T04:39:38.061Z,6.32
2022-09-25T04:41:40.277Z,7.13
2022-09-25T04:43:43.656Z,7.25
2022-09-25T04:45:47.497Z,8.07
2022-09-25T04:47:49.603Z,6.03
2022-09-25T04:49:52.812Z,5.70
2022-09-25T04:51:57.329Z,5.40
2022-09-25T04:54:00.155Z,7.88
2022-09-25T04:56:04.678Z,6.45
2022-09-25T04:58:06.729Z,6.93
2022-09-25T05:00:10.956Z,5.70
2022-09-25T05:02:13.823Z,7.22
2022-09-25T05:04:16.554Z,8.23
2022-09-25T05:06:19.928Z,11.48
2022-09-25T05:08:23.509Z,8.73
2022-09-25T05:10:30.307Z,11.80
2022-09-25T05:12:37.027Z,11.93
2022-09-25T05:14:41.834Z,11.32
2022-09-25T05:16:43.975Z,9.65
2022-09-25T05:18:46.107Z,9.60
2022-09-25T05:20:49.045Z,11.57
2022-09-25T05:22:55.493Z,11.13
2022-09-25T05:24:59.126Z,6.75
2022-09-25T05:27:01.446Z,7.45
2022-09-25T05:29:04.971Z,9.20
2022-09-25T05:31:07.460Z,10.38
2022-09-25T05:33:09.843Z,8.73
2022-09-25T05:35:12.060Z,9.23
2022-09-25T05:37:14.293Z,10.23
2022-09-25T05:39:17.310Z,9.63
2022-09-25T05:41:19.369Z,7.97
2022-09-25T05:43:21.950Z,10.40
2022-09-25T05:45:24.614Z,11.85
2022-09-25T05:47:27.034Z,10.73
2022-09-25T05:49:30.340Z,12.88
2022-09-25T05:51:33.383Z,13.55
2022-09-25T05:53:36.148Z,16.45
2022-09-25T05:55:41.605Z,15.13
2022-09-25T05:57:43.559Z,14.73
2022-09-25T05:59:45.815Z,12.73
2022-09-25T06:01:47.973Z,10.15
2022-09-25T06:03:50.369Z,24.35
2022-09-25T06:05:53.453Z,22.70
2022-09-25T06:07:56.227Z,14.93
2022-09-25T06:09:58.309Z,15.80
2022-09-25T06:12:00.534Z,13.43
2022-09-25T06:14:04.236Z,18.50
2022-09-25T06:16:15.366Z,18.52
2022-09-25T06:18:17.351Z,16.17
2022-09-25T06:20:22.896Z,13.35
2022-09-25T06:22:25.406Z,13.13
2022-09-25T06:24:27.509Z,9.98
2022-09-25T06:26:29.785Z,10.48
2022-09-25T06:28:32.001Z,8.93
2022-09-25T06:30:36.298Z,9.48
2022-09-25T06:32:38.424Z,8.05
2022-09-25T06:34:40.286Z,8.90
2022-09-25T06:36:42.645Z,11.88
2022-09-25T06:38:44.942Z,10.48
2022-09-25T06:40:49.325Z,11.15
2022-09-25T06:42:59.182Z,9.98
2022-09-25T06:45:01.928Z,11.52
2022-09-25T06:47:04.024Z,9.30
2022-09-25T06:49:06.133Z,8.07
2022-09-25T06:51:09.252Z,9.45
2022-09-25T06:53:12.107Z,10.25
2022-09-25T06:55:14.992Z,7.97
2022-09-25T06:57:17.000Z,9.93
2022-09-25T06:59:19.015Z,8.23
2022-09-25T07:01:21.135Z,10.07
2022-09-25T07:03:42.183Z,9.77
2022-09-25T07:05:45.486Z,9.45
2022-09-25T07:07:48.551Z,9.27
2022-09-25T07:09:50.609Z,8.15
2022-09-25T07:11:53.257Z,9.82
2022-09-25T07:13:55.657Z,10.68
2022-09-25T07:16:08.858Z,11.25
2022-09-25T07:18:10.972Z,8.80
2022-09-25T07:20:15.531Z,9.15
2022-09-25T07:22:17.426Z,8.32
2022-09-25T07:24:19.930Z,10.52
2022-09-25T07:26:24.711Z,7.63
2022-09-25T07:28:26.636Z,10.50
2022-09-25T07:30:29.876Z,10.15
2022-09-25T07:32:32.075Z,8.38
2022-09-25T07:34:37.653Z,9.40
2022-09-25T07:36:41.386Z,8.27
2022-09-25T07:38:43.991Z,7.03
2022-09-25T07:40:46.606Z,7.97
2022-09-25T07:42:48.634Z,7.38
2022-09-25T07:44:50.695Z,9.70
2022-09-25T07:46:53.318Z,9.13
2022-09-25T07:48:55.866Z,10.65
2022-09-25T07:51:06.956Z,8.98
2022-09-25T07:53:08.926Z,7.75
2022-09-25T07:55:11.088Z,11.50
2022-09-25T07:57:13.661Z,9.18
2022-09-25T07:59:16.429Z,6.13
2022-09-25T08:01:18.908Z,9.10
2022-09-25T08:03:21.691Z,6.63
2022-09-25T08:05:24.017Z,7.03
2022-09-25T08:07:28.669Z,9.82
2022-09-25T08:09:30.935Z,7.72
2022-09-25T08:11:34.380Z,7.97
2022-09-25T08:13:39.396Z,7.63
2022-09-25T08:15:41.820Z,9.07
2022-09-25T08:17:44.055Z,10.10
2022-09-25T08:19:46.760Z,9.32
2022-09-25T08:21:49.022Z,7.53
2022-09-25T08:23:53.131Z,6.85
2022-09-25T08:25:58.508Z,8.60
2022-09-25T08:28:00.999Z,8.80
2022-09-25T08:30:03.462Z,6.35
2022-09-25T08:32:08.635Z,9.07
2022-09-25T08:34:38.917Z,6.10
2022-09-25T08:36:32.807Z,5.90
2022-09-25T08:38:34.739Z,6.68
2022-09-25T08:40:52.704Z,5.35
2022-09-25T08:42:56.292Z,8.13
2022-09-25T08:45:41.140Z,6.90
2022-09-25T08:48:02.466Z,5.72
2022-09-25T08:50:11.186Z,7.78
2022-09-25T08:52:18.420Z,7.88
2022-09-25T08:54:29.561Z,7.00
2022-09-25T08:56:35.301Z,7.65
2022-09-25T08:58:43.436Z,7.32
2022-09-25T09:00:46.421Z,4.95
2022-09-25T09:02:54.291Z,8.55
2022-09-25T09:05:01.469Z,7.40
2022-09-25T09:07:28.044Z,4.93
2022-09-25T09:09:46.446Z,5.50
2022-09-25T09:12:12.598Z,4.32
2022-09-25T09:14:20.786Z,7.28
2022-09-25T09:16:52.509Z,4.53
2022-09-25T09:18:56.657Z,5.97
2022-09-25T09:21:07.398Z,4.55
2022-09-25T09:23:16.861Z,9.80
2022-09-25T09:25:36.614Z,38.60
2022-09-25T09:27:54.081Z,72.00
2022-09-25T09:30:05.960Z,66.60
2022-09-25T09:32:14.310Z,76.88
2022-09-25T09:35:04.802Z,60.17
2022-09-25T09:37:27.893Z,44.92
2022-09-25T09:39:42.806Z,35.17
2022-09-25T09:42:15.970Z,24.83
2022-09-25T09:44:40.052Z,25.92
2022-09-25T09:46:48.962Z,19.33
2022-09-25T09:49:26.279Z,15.02
2022-09-25T09:51:36.010Z,14.02
2022-09-25T09:53:57.016Z,15.18
2022-09-25T09:56:14.906Z,18.95
2022-09-25T09:58:34.340Z,13.98
2022-09-25T10:00:39.659Z,14.85
2022-09-25T10:02:53.112Z,13.00
2022-09-25T10:04:56.987Z,13.02
2022-09-25T10:07:18.570Z,10.25
2022-09-25T10:09:20.799Z,12.55
2022-09-25T10:11:24.018Z,13.38
2022-09-25T10:13:39.711Z,10.48
2022-09-25T10:15:48.453Z,14.07
2022-09-25T10:17:50.998Z,12.85
2022-09-25T10:19:59.745Z,10.30
2022-09-25T10:22:16.843Z,12.23
2022-09-25T10:24:51.470Z,11.77
2022-09-25T10:26:53.458Z,17.75
2022-09-25T10:29:00.409Z,16.85
2022-09-25T10:31:06.218Z,13.02
2022-09-25T10:33:16.988Z,12.60
2022-09-25T10:35:21.522Z,14.63
2022-09-25T10:37:34.987Z,11.63
2022-09-25T10:39:45.461Z,26.50
2022-09-25T10:41:48.140Z,20.02
2022-09-25T10:44:02.104Z,19.45
2022-09-25T10:46:13.272Z,21.20
2022-09-25T10:48:48.552Z,34.83
2022-09-25T10:51:08.571Z,52.25
2022-09-25T10:53:37.092Z,65.22
2022-09-25T10:55:46.613Z,44.85
2022-09-25T10:57:48.982Z,44.42
2022-09-25T10:59:52.174Z,42.78
2022-09-25T11:01:56.188Z,36.00
2022-09-25T11:03:59.090Z,33.35
2022-09-25T11:06:07.505Z,36.10
2022-09-25T11:08:09.538Z,31.45
2022-09-25T11:10:21.221Z,26.35
2022-09-25T11:12:25.897Z,18.13
2022-09-25T11:14:33.015Z,14.32
2022-09-25T11:17:06.034Z,15.85
2022-09-25T11:19:13.027Z,12.70
2022-09-25T11:21:19.808Z,10.73
2022-09-25T11:23:41.478Z,9.20
2022-09-25T11:25:57.540Z,14.50
2022-09-25T11:28:20.493Z,21.33
2022-09-25T11:30:24.074Z,27.50
2022-09-25T11:32:34.991Z,23.55
2022-09-25T11:34:39.650Z,19.90
2022-09-25T11:37:18.379Z,19.85
2022-09-25T11:40:02.925Z,10.82
2022-09-25T11:42:19.071Z,8.00
2022-09-25T11:45:00.616Z,7.75
2022-09-25T11:47:08.134Z,6.20
2022-09-25T11:49:22.687Z,5.55
2022-09-25T11:51:44.965Z,6.55
2022-09-25T11:54:07.277Z,4.65
2022-09-25T11:56:26.396Z,5.20
2022-09-25T11:58:43.596Z,6.85
2022-09-25T12:00:57.243Z,5.15
2022-09-25T12:03:17.821Z,5.25
2022-09-25T12:05:45.412Z,3.47
2022-09-25T12:08:17.819Z,4.68
2022-09-25T12:10:25.962Z,5.43
2022-09-25T12:12:41.660Z,5.22
2022-09-25T12:14:59.876Z,4.55
2022-09-25T12:17:26.817Z,3.78
2022-09-25T12:19:52.274Z,4.28
2022-09-25T12:22:10.034Z,5.70
2022-09-25T12:24:48.634Z,3.80
2022-09-25T12:27:01.902Z,3.60
2022-09-25T12:29:29.602Z,4.60
2022-09-25T12:31:43.643Z,5.78
2022-09-25T12:34:02.416Z,5.63
2022-09-25T12:36:18.294Z,4.07
2022-09-25T12:38:30.471Z,4.18
2022-09-25T12:40:48.179Z,3.85
2022-09-25T12:43:03.081Z,3.25
2022-09-25T12:45:27.820Z,2.83
2022-09-25T12:47:51.128Z,2.85
2022-09-25T12:50:08.081Z,3.10
2022-09-25T12:52:14.413Z,2.80
2022-09-25T12:54:25.214Z,4.20
2022-09-25T12:56:41.824Z,3.65
2022-09-25T12:59:05.462Z,2.67
2022-09-25T13:01:17.347Z,5.13
2022-09-25T13:03:34.474Z,2.88
2022-09-25T13:05:45.625Z,3.75
2022-09-25T13:08:14.905Z,4.28
2022-09-25T13:10:22.076Z,3.28
2022-09-25T13:12:38.105Z,5.47
2022-09-25T13:14:48.507Z,3.00
2022-09-25T13:16:51.240Z,4.63
2022-09-25T13:19:28.869Z,3.15
2022-09-25T13:21:37.030Z,3.83
2022-09-25T13:23:41.768Z,5.80
2022-09-25T13:26:12.790Z,4.38
2022-09-25T13:28:23.526Z,3.35
2022-09-25T13:30:29.052Z,2.53
2022-09-25T13:32:35.240Z,2.85
2022-09-25T13:34:39.929Z,2.50
2022-09-25T13:36:50.674Z,2.22
2022-09-25T13:40:00.458Z,3.28
2022-09-25T13:42:25.707Z,2.80
2022-09-25T13:44:50.177Z,4.13
2022-09-25T13:47:12.249Z,6.03
2022-09-25T13:49:35.311Z,6.25
2022-09-25T13:51:37.740Z,7.35
2022-09-25T13:54:22.782Z,8.45
2022-09-25T13:56:34.094Z,8.43
2022-09-25T13:59:07.669Z,6.28
2022-09-25T14:01:33.539Z,7.53
2022-09-25T14:03:46.015Z,7.72
2022-09-25T14:05:48.595Z,7.35
2022-09-25T14:07:55.622Z,6.70
2022-09-25T14:10:00.619Z,6.75
2022-09-25T14:12:03.178Z,5.40
2022-09-25T14:14:10.503Z,6.07
2022-09-25T14:16:36.440Z,10.15
2022-09-25T14:18:49.174Z,7.68
2022-09-25T14:20:59.979Z,10.30
2022-09-25T14:23:12.105Z,10.63
2022-09-25T14:25:33.267Z,7.35
2022-09-25T14:27:35.550Z,7.60
2022-09-25T14:29:41.231Z,7.82
2022-09-25T14:31:49.075Z,5.30
2022-09-25T14:34:26.163Z,6.68
2022-09-25T14:37:19.378Z,5.13
2022-09-25T14:39:39.046Z,4.43
2022-09-25T14:42:08.281Z,5.35
2022-09-25T14:44:25.956Z,5.65
2022-09-25T14:46:28.653Z,6.40
2022-09-25T14:48:54.432Z,5.47
2022-09-25T14:51:02.512Z,6.20
2022-09-25T14:53:13.259Z,6.70
2022-09-25T14:55:20.556Z,5.70
2022-09-25T14:57:28.124Z,7.10
2022-09-25T14:59:43.678Z,4.80
2022-09-25T15:01:49.361Z,6.75
2022-09-25T15:03:51.667Z,5.65
2022-09-25T15:05:53.656Z,5.15
2022-09-25T15:07:59.488Z,4.72
2022-09-25T15:10:01.533Z,4.57
2022-09-25T15:12:34.199Z,4.80
2022-09-25T15:14:36.154Z,4.88
2022-09-25T15:16:57.464Z,4.82
2022-09-25T15:19:01.972Z,5.72
2022-09-25T15:21:04.238Z,4.55
2022-09-25T15:23:09.076Z,4.50
2022-09-25T15:25:22.943Z,5.20
2022-09-25T15:27:28.428Z,3.92
2022-09-25T15:29:35.484Z,5.45
2022-09-25T15:31:37.702Z,5.97
2022-09-25T15:33:41.165Z,9.18
2022-09-25T15:35:43.009Z,8.55
2022-09-25T15:37:46.243Z,9.52
2022-09-25T15:39:48.360Z,10.38
2022-09-25T15:41:50.679Z,11.18
2022-09-25T15:43:56.528Z,12.15
2022-09-25T15:46:28.111Z,11.57
2022-09-25T15:48:33.060Z,13.77
2022-09-25T15:50:35.699Z,14.13
2022-09-25T15:52:38.468Z,16.52
2022-09-25T15:54:45.159Z,15.85
2022-09-25T15:56:55.427Z,16.92
2022-09-25T15:59:04.691Z,15.82
2022-09-25T16:01:25.432Z,14.88
2022-09-25T16:03:49.556Z,18.20
2022-09-25T16:05:52.512Z,19.25
2022-09-25T16:08:15.664Z,19.13
2022-09-25T16:10:17.395Z,19.20
2022-09-25T16:12:20.029Z,16.20
2022-09-25T16:14:30.282Z,15.85
2022-09-25T16:16:32.486Z,16.75
2022-09-25T16:18:39.712Z,20.00
2022-09-25T16:20:42.065Z,16.33
2022-09-25T16:22:51.004Z,16.23
2022-09-25T16:24:54.885Z,16.23
2022-09-25T16:27:00.846Z,16.77
2022-09-25T16:29:11.912Z,14.75
2022-09-25T16:31:13.964Z,15.95
2022-09-25T16:33:28.611Z,14.65
2022-09-25T16:36:09.023Z,15.10
2022-09-25T16:38:02.937Z,15.32
2022-09-25T16:40:38.471Z,14.07
2022-09-25T16:42:40.789Z,13.88
2022-09-25T16:44:47.195Z,15.60
2022-09-25T16:46:54.978Z,16.30
2022-09-25T16:49:01.668Z,13.63
2022-09-25T16:51:06.388Z,17.27
2022-09-25T16:53:08.963Z,24.55
2022-09-25T16:55:27.479Z,21.65
2022-09-25T16:57:29.549Z,26.55
2022-09-25T16:59:31.552Z,34.15
2022-09-25T17:01:33.794Z,28.52
2022-09-25T17:03:50.178Z,32.72
2022-09-25T17:05:52.379Z,33.45
2022-09-25T17:07:57.483Z,32.13
2022-09-25T17:10:01.179Z,37.42
2022-09-25T17:12:08.557Z,34.03
2022-09-25T17:14:25.685Z,26.02
2022-09-25T17:16:27.715Z,32.03
2022-09-25T17:18:30.113Z,23.90
2022-09-25T17:20:32.076Z,20.95
2022-09-25T17:22:34.175Z,23.42
2022-09-25T17:24:36.307Z,23.42
2022-09-25T17:26:39.307Z,23.13
2022-09-25T17:28:41.875Z,20.95
2022-09-25T17:30:45.024Z,22.02
2022-09-25T17:32:47.160Z,23.95
2022-09-25T17:34:49.094Z,25.92
2022-09-25T17:36:52.060Z,23.63
2022-09-25T17:38:53.968Z,26.13
2022-09-25T17:41:00.497Z,30.10
2022-09-25T17:43:05.126Z,24.30
2022-09-25T17:45:25.910Z,25.35
2022-09-25T17:47:28.387Z,19.20
2022-09-25T17:49:31.176Z,17.67
2022-09-25T17:51:33.128Z,18.50
2022-09-25T17:53:35.310Z,16.52
2022-09-25T17:55:37.499Z,19.25
2022-09-25T17:57:39.365Z,22.27
2022-09-25T17:59:41.363Z,22.48
2022-09-25T18:01:43.445Z,26.67
2022-09-25T18:03:45.347Z,25.70
2022-09-25T18:05:48.011Z,23.95
2022-09-25T18:07:50.344Z,19.52
2022-09-25T18:09:52.462Z,18.58
2022-09-25T18:11:55.155Z,19.27
2022-09-25T18:14:01.330Z,18.75
2022-09-25T18:16:04.725Z,17.55
2022-09-25T18:18:06.893Z,15.05
2022-09-25T18:20:31.839Z,17.30
2022-09-25T18:22:36.537Z,17.08
2022-09-25T18:24:38.705Z,16.83
2022-09-25T18:26:43.612Z,18.13
2022-09-25T18:28:45.602Z,16.73
2022-09-25T18:30:47.706Z,22.00
2022-09-25T18:32:50.367Z,36.03
2022-09-25T18:34:52.456Z,34.72
2022-09-25T18:36:57.571Z,39.05
2022-09-25T18:38:59.494Z,32.70
2022-09-25T18:41:02.819Z,32.50
2022-09-25T18:43:04.807Z,35.88
2022-09-25T18:45:07.748Z,36.55
2022-09-25T18:47:09.734Z,37.95
2022-09-25T18:49:12.060Z,34.78
2022-09-25T18:51:15.076Z,28.23
2022-09-25T18:53:17.778Z,29.10
2022-09-25T18:55:19.803Z,25.30
2022-09-25T18:57:21.987Z,23.83
2022-09-25T18:59:28.408Z,20.42
2022-09-25T19:01:31.201Z,17.48
2022-09-25T19:03:58.230Z,14.35
2022-09-25T19:06:03.214Z,16.67
2022-09-25T19:08:05.315Z,15.60
2022-09-25T19:10:09.758Z,19.45
2022-09-25T19:12:17.152Z,21.38
2022-09-25T19:14:20.158Z,20.60
2022-09-25T19:17:24.878Z,20.73
2022-09-25T19:19:28.140Z,20.73
2022-09-25T19:21:31.604Z,17.73
2022-09-25T19:23:35.676Z,16.65
2022-09-25T19:25:38.374Z,17.63
2022-09-25T19:27:40.673Z,16.00
2022-09-25T19:29:47.833Z,18.80
2022-09-25T19:31:50.045Z,19.38
2022-09-25T19:33:53.316Z,19.48
2022-09-25T19:36:06.834Z,22.00
2022-09-25T19:38:12.573Z,21.13
2022-09-25T19:40:33.580Z,17.42
2022-09-25T19:42:36.450Z,19.70
2022-09-25T19:44:39.185Z,18.10
2022-09-25T19:46:43.489Z,17.65
2022-09-25T19:48:47.788Z,14.27
2022-09-25T19:50:50.202Z,15.38
2022-09-25T19:52:52.484Z,18.30
2022-09-25T19:54:54.544Z,15.15
2022-09-25T19:56:56.792Z,14.52
2022-09-25T19:58:58.843Z,15.85
2022-09-25T20:01:01.563Z,16.20
2022-09-25T20:03:03.835Z,17.67
2022-09-25T20:05:06.857Z,16.80
2022-09-25T20:07:08.930Z,23.40
2022-09-25T20:09:11.750Z,20.38
2022-09-25T20:11:14.979Z,23.50
2022-09-25T20:13:17.400Z,20.55
2022-09-25T20:15:19.542Z,18.15
2022-09-25T20:17:22.244Z,20.38
2022-09-25T20:19:24.439Z,26.58
2022-09-25T20:21:30.146Z,23.52
2022-09-25T20:23:32.403Z,29.10
2022-09-25T20:25:34.677Z,20.85
2022-09-25T20:27:37.552Z,21.85
2022-09-25T20:29:39.644Z,20.95
2022-09-25T20:31:47.219Z,15.73
2022-09-25T20:33:49.726Z,19.38
2022-09-25T20:35:52.204Z,18.73
2022-09-25T20:37:54.179Z,13.27
2022-09-25T20:39:56.558Z,19.92
2022-09-25T20:41:59.235Z,16.67
2022-09-25T20:44:01.803Z,15.18
2022-09-25T20:46:07.281Z,16.77
2022-09-25T20:48:09.393Z,13.55
2022-09-25T20:50:11.983Z,15.30
2022-09-25T20:52:14.713Z,18.38
2022-09-25T20:54:18.893Z,15.80
2022-09-25T20:56:24.518Z,17.33
2022-09-25T20:58:26.863Z,16.42
2022-09-25T21:00:29.393Z,15.77
2022-09-25T21:02:32.037Z,18.85
2022-09-25T21:04:34.234Z,15.82
2022-09-25T21:06:39.606Z,14.93
2022-09-25T21:08:42.122Z,15.07
2022-09-25T21:10:45.509Z,14.07
2022-09-25T21:12:47.626Z,15.38
2022-09-25T21:14:50.329Z,13.88
2022-09-25T21:16:54.092Z,17.20
2022-09-25T21:19:02.143Z,14.85
2022-09-25T21:21:07.408Z,16.88
2022-09-25T21:23:09.425Z,12.52
2022-09-25T21:25:12.142Z,11.52
2022-09-25T21:27:14.929Z,11.10
2022-09-25T21:29:18.066Z,13.65
2022-09-25T21:31:23.164Z,12.35
2022-09-25T21:33:25.496Z,14.23
2022-09-25T21:35:27.739Z,11.40
2022-09-25T21:37:30.295Z,12.00
2022-09-25T21:39:32.627Z,13.55
2022-09-25T21:41:35.283Z,11.80
2022-09-25T21:43:38.566Z,13.55
2022-09-25T21:45:40.609Z,11.75
2022-09-25T21:47:43.001Z,12.43
2022-09-25T21:49:45.149Z,8.60
2022-09-25T21:51:48.495Z,13.80
2022-09-25T21:53:52.548Z,11.55
2022-09-25T21:56:07.907Z,11.98
2022-09-25T21:58:10.045Z,11.65
2022-09-25T22:00:13.931Z,15.85
2022-09-25T22:02:15.958Z,9.68
2022-09-25T22:04:18.234Z,13.75
2022-09-25T22:06:23.065Z,12.88
2022-09-25T22:08:25.259Z,45.72
2022-09-25T22:10:27.649Z,47.83
2022-09-25T22:12:29.659Z,52.03
2022-09-25T22:14:32.334Z,43.22
2022-09-25T22:16:37.450Z,32.83
2022-09-25T22:18:52.650Z,27.85
2022-09-25T22:20:55.066Z,21.23
2022-09-25T22:22:56.989Z,19.60
2022-09-25T22:24:59.025Z,17.35
2022-09-25T22:27:00.957Z,25.33
2022-09-25T22:29:04.493Z,21.08
2022-09-25T22:31:19.174Z,21.67
2022-09-25T22:33:21.676Z,21.60
2022-09-25T22:35:25.902Z,18.27
2022-09-25T22:37:28.170Z,21.45
2022-09-25T22:39:30.280Z,15.48
2022-09-25T22:41:33.257Z,16.52
2022-09-25T22:43:35.975Z,16.73
2022-09-25T22:45:38.222Z,14.13
2022-09-25T22:47:40.119Z,11.68
2022-09-25T22:49:42.407Z,15.95
2022-09-25T22:51:44.405Z,11.38
2022-09-25T22:53:47.263Z,9.00
2022-09-25T22:55:49.684Z,9.18
2022-09-25T22:57:51.988Z,7.07
2022-09-25T22:59:53.950Z,10.63
2022-09-25T23:01:56.002Z,10.23
2022-09-25T23:04:01.044Z,8.27
2022-09-25T23:06:03.796Z,7.38
2022-09-25T23:08:06.838Z,6.63
2022-09-25T23:10:09.358Z,5.80
2022-09-25T23:12:11.221Z,9.18
2022-09-25T23:14:20.711Z,8.43
2022-09-25T23:16:23.093Z,10.32
2022-09-25T23:18:25.167Z,13.43
2022-09-25T23:20:27.399Z,8.40
2022-09-25T23:22:29.494Z,7.40
2022-09-25T23:24:31.704Z,7.57
2022-09-25T23:26:34.944Z,7.05
2022-09-25T23:28:41.901Z,10.13
2022-09-25T23:30:44.090Z,7.00
2022-09-25T23:32:46.073Z,6.40
2022-09-25T23:34:48.038Z,8.82
2022-09-25T23:36:49.997Z,6.28
2022-09-25T23:38:54.289Z,8.52
2022-09-25T23:40:56.187Z,7.35
2022-09-25T23:42:58.391Z,8.38
2022-09-25T23:45:00.332Z,5.63
2022-09-25T23:47:02.489Z,5.63
2022-09-25T23:49:04.960Z,5.82
2022-09-25T23:51:07.160Z,5.57
2022-09-25T23:53:09.271Z,5.32
2022-09-25T23:55:11.440Z,6.88
2022-09-25T23:57:15.221Z,5.32
2022-09-25T23:59:17.215Z,4.95
